Bourton on the Water, United Kingdom
Current Conditions -  °F | °C
As of 9:50 PM on Friday 24 Oct 2014 (Local Time) from EGVN Reporting Station
Few Clouds Few Clouds  
Wind Chill: 50°   Ceiling: Unl
Heat Index: 50°   Visibility: 6mi
Dew Point: 48°   Wind: 1mph
Humidity: 94%   Direction: 230°SW
Pressure: 29.97"   Gusts: NA
Location:  51.87°N, 1.75°W
Report Text: EGVN 242050Z 23001KT 9999 FEW045 10/09 Q1015 BLU NOSIG
Loading
Personal Weather Stations






























Interactive Weather Map
Tropical Storm Tracking
New forecast layout! Learn more

10-Day Weather Forecast

Advertisements
Track Severe Weather on mobile